Time,TemperatureF,DewpointF,PressureIn,WindDirection,WindDirectionDegrees,WindSpeedMPH,WindSpeedGustMPH,Humidity,HourlyPrecipIn,Conditions,Clouds,dailyrainin,SoftwareType,DateUTC
2013-02-13 00:29:00,32.4,20.1,30.23,East,79,3.0,8.0,60,0.00,,,0.00,VWS V14.01,2013-02-13 08:29:00,
2013-02-13 00:59:00,32.2,19.5,30.22,East,79,2.0,9.0,59,0.00,,,0.00,VWS V14.01,2013-02-13 08:59:00,
2013-02-13 01:29:00,33.2,19.6,30.22,ENE,73,0.0,7.0,57,0.00,,,0.00,VWS V14.01,2013-02-13 09:29:00,
2013-02-13 01:59:00,32.5,18.6,30.21,ENE,72,3.0,8.0,56,0.00,,,0.00,VWS V14.01,2013-02-13 09:59:00,
2013-02-13 02:29:00,33.9,19.0,30.21,ENE,64,4.0,7.0,54,0.00,,,0.00,VWS V14.01,2013-02-13 10:29:00,
2013-02-13 02:59:00,38.0,17.0,30.20,ENE,77,0.0,10.0,42,0.00,,,0.00,VWS V14.01,2013-02-13 10:59:00,
2013-02-13 03:29:00,42.3,14.6,30.20,ENE,60,0.0,10.0,32,0.00,,,0.00,VWS V14.01,2013-02-13 11:29:00,
2013-02-13 03:59:00,43.7,15.1,30.20,NW,309,0.0,12.0,31,0.00,,,0.00,VWS V14.01,2013-02-13 11:59:00,
2013-02-13 04:29:00,40.1,14.7,30.20,NE,39,0.0,1.0,35,0.00,,,0.00,VWS V14.01,2013-02-13 12:29:00,
2013-02-13 04:59:00,37.3,16.9,30.20,ENE,70,4.0,7.0,43,0.00,,,0.00,VWS V14.01,2013-02-13 12:59:00,
2013-02-13 05:29:00,38.8,16.6,30.20,ENE,77,1.0,5.0,40,0.00,,,0.00,VWS V14.01,2013-02-13 13:29:00,
2013-02-13 05:59:00,40.6,17.0,30.19,ENE,78,0.0,2.0,38,0.00,,,0.00,VWS V14.01,2013-02-13 13:59:00,
2013-02-13 06:29:00,41.1,18.0,30.22,ENE,78,0.0,3.0,39,0.00,,,0.00,VWS V14.01,2013-02-13 14:29:00,
2013-02-13 06:59:00,39.2,16.3,30.22,ENE,78,0.0,5.0,39,0.00,,,0.00,VWS V14.01,2013-02-13 14:59:00,
2013-02-13 07:29:00,37.5,19.1,30.22,East,84,0.0,9.0,47,0.00,,,0.00,VWS V14.01,2013-02-13 15:29:00,
2013-02-13 07:59:00,44.4,20.4,30.22,NW,305,0.0,4.0,38,0.00,,,0.00,VWS V14.01,2013-02-13 15:59:00,
2013-02-13 08:29:00,48.9,19.6,30.23,NW,305,1.0,3.0,31,0.00,,,0.00,VWS V14.01,2013-02-13 16:29:00,
2013-02-13 08:59:00,51.2,21.6,30.22,SW,229,2.0,5.0,31,0.00,,,0.00,VWS V14.01,2013-02-13 16:59:00,
2013-02-13 09:29:00,54.0,21.6,30.22,NW,308,0.0,5.0,28,0.00,,,0.00,VWS V14.01,2013-02-13 17:29:00,
2013-02-13 09:59:00,54.8,24.0,30.22,WNW,285,3.0,8.0,30,0.00,,,0.00,VWS V14.01,2013-02-13 17:59:00,
2013-02-13 10:29:00,56.3,21.9,30.22,SW,236,4.0,8.0,26,0.00,,,0.00,VWS V14.01,2013-02-13 18:29:00,
2013-02-13 10:59:00,57.3,22.7,30.20,WSW,239,8.0,11.0,26,0.00,,,0.00,VWS V14.01,2013-02-13 18:59:00,
2013-02-13 11:29:00,58.6,22.9,30.19,West,276,5.0,13.0,25,0.00,,,0.00,VWS V14.01,2013-02-13 19:29:00,
2013-02-13 11:59:00,60.7,25.6,30.18,WNW,303,6.0,10.0,26,0.00,,,0.00,VWS V14.01,2013-02-13 19:59:00,
2013-02-13 12:29:00,61.8,28.4,30.16,NW,322,3.0,10.0,28,0.00,,,0.00,VWS V14.01,2013-02-13 20:29:00,
2013-02-13 12:59:00,59.3,27.9,30.15,West,280,5.0,12.0,30,0.00,,,0.00,VWS V14.01,2013-02-13 20:59:00,
2013-02-13 13:29:00,60.6,31.4,30.14,WNW,303,2.0,13.0,33,0.00,,,0.00,VWS V14.01,2013-02-13 21:29:00,
2013-02-13 13:59:00,59.8,32.1,30.14,WNW,296,5.0,11.0,35,0.00,,,0.00,VWS V14.01,2013-02-13 21:59:00,
2013-02-13 14:29:00,59.7,30.6,30.13,NW,304,4.0,14.0,33,0.00,,,0.00,VWS V14.01,2013-02-13 22:29:00,
2013-02-13 14:59:00,59.8,32.1,30.12,WSW,252,6.0,11.0,35,0.00,,,0.00,VWS V14.01,2013-02-13 22:59:00,
2013-02-13 15:59:00,58.3,34.1,30.11,WNW,303,3.0,10.0,40,0.00,,,0.00,VWS V14.01,2013-02-13 23:59:00,
2013-02-13 16:29:00,58.0,33.8,30.10,WNW,294,3.0,9.0,40,0.00,,,0.00,VWS V14.01,2013-02-14 00:29:00,
2013-02-13 16:59:00,55.4,35.0,30.11,WSW,237,4.0,6.0,46,0.00,,,0.00,VWS V14.01,2013-02-14 00:59:00,
2013-02-13 17:29:00,52.4,35.3,30.11,West,269,0.0,5.0,52,0.00,,,0.00,VWS V14.01,2013-02-14 01:29:00,
2013-02-13 17:59:00,46.7,34.8,30.12,ENE,72,2.0,4.0,63,0.00,,,0.00,VWS V14.01,2013-02-14 01:59:00,
2013-02-13 18:29:00,42.7,33.6,30.12,East,85,5.0,8.0,70,0.00,,,0.00,VWS V14.01,2013-02-14 02:29:00,
2013-02-13 18:59:00,41.1,32.8,30.13,ENE,78,2.0,7.0,72,0.00,,,0.00,VWS V14.01,2013-02-14 02:59:00,
2013-02-13 19:29:00,40.6,32.6,30.12,ENE,75,3.0,6.0,73,0.00,,,0.00,VWS V14.01,2013-02-14 03:29:00,
2013-02-13 19:59:00,39.4,31.8,30.13,East,85,3.0,8.0,74,0.00,,,0.00,VWS V14.01,2013-02-14 03:59:00,
2013-02-13 20:29:00,39.5,30.2,30.12,East,83,1.0,7.0,69,0.00,,,0.00,VWS V14.01,2013-02-14 04:29:00,
2013-02-13 20:59:00,40.4,29.6,30.13,East,79,2.0,7.0,65,0.00,,,0.00,VWS V14.01,2013-02-14 04:59:00,
2013-02-13 21:29:00,39.6,28.8,30.13,East,82,5.0,9.0,65,0.00,,,0.00,VWS V14.01,2013-02-14 05:29:00,
2013-02-13 21:59:00,40.0,28.4,30.13,ENE,78,2.0,8.0,63,0.00,,,0.00,VWS V14.01,2013-02-14 05:59:00,
2013-02-13 22:29:00,39.7,28.9,30.13,East,86,5.0,10.0,65,0.00,,,0.00,VWS V14.01,2013-02-14 06:29:00,
2013-02-13 22:59:00,39.2,27.7,30.13,ENE,72,2.0,9.0,63,0.00,,,0.00,VWS V14.01,2013-02-14 06:59:00,
2013-02-13 23:29:00,38.4,28.0,30.14,ENE,67,2.0,8.0,66,0.00,,,0.00,VWS V14.01,2013-02-14 07:29:00,
2013-02-13 23:59:00,38.2,28.2,30.13,East,82,5.0,8.0,67,0.00,,,0.00,VWS V14.01,2013-02-14 07:59:00,